Terminal Aerodrome Forecast
Issued by NWS Bismarck, ND

Home | Current Version | Previous Version | Graphics & Text | Print | Product List | Glossary On
Versions: 1 2 3 4 5 6 7 8 9 10 11 12 13 14 15 16 17 18 19 20
000
FTUS43 KBIS 090811 AAA
TAFISN
TAF AMD
KISN 090811Z 0908/1006 VRB03KT P6SM SCT014
      TEMPO 0908/0909 BKN014
     FM090900 VRB03KT P6SM BKN014
     FM091500 04004KT P6SM BKN015
     FM091800 07004KT P6SM BKN035=

USA.gov is the U.S. government's official web portal to all federal, state and local government web resources and services.